createdAt,value
2022-11-01T00:00:38.628Z,97660.78
2022-11-01T00:03:11.034Z,97660.09
2022-11-01T00:05:42.974Z,97660.25
2022-11-01T00:08:14.976Z,97657.94
2022-11-01T00:10:47.178Z,97649.09
2022-11-01T00:13:21.578Z,97652.94
2022-11-01T00:15:53.024Z,97646.94
2022-11-01T00:18:25.776Z,97644.63
2022-11-01T00:20:58.341Z,97649.09
2022-11-01T00:23:30.930Z,97643.94
2022-11-01T00:26:05.041Z,97637.94
2022-11-01T00:28:40.929Z,97656.75
2022-11-01T00:31:15.267Z,97644.44
2022-11-01T00:33:48.618Z,97649.75
2022-11-01T00:36:22.757Z,97649.06
2022-11-01T00:38:55.164Z,97646.41
2022-11-01T00:41:28.183Z,97647.41
2022-11-01T00:44:03.690Z,97639.59
2022-11-01T00:46:35.581Z,97643.25
2022-11-01T00:49:08.059Z,97642.59
2022-11-01T00:51:39.160Z,97638.41
2022-11-01T00:54:11.762Z,97643.72
2022-11-01T00:56:44.846Z,97645.75
2022-11-01T00:59:21.740Z,97643.41
2022-11-01T01:01:55.580Z,97636.56
2022-11-01T01:04:29.294Z,97637.72
2022-11-01T01:07:02.406Z,97631.91
2022-11-01T01:09:36.190Z,97633.72
2022-11-01T01:12:09.776Z,97629.41
2022-11-01T01:14:45.348Z,97631.41
2022-11-01T01:17:17.470Z,97633.22
2022-11-01T01:19:50.252Z,97630.56
2022-11-01T01:22:24.262Z,97628.06
2022-11-01T01:24:57.898Z,97635.72
2022-11-01T01:27:32.197Z,97630.03
2022-11-01T01:30:05.681Z,97632.84
2022-11-01T01:32:36.574Z,97629.69
2022-11-01T01:35:07.889Z,97629.31
2022-11-01T01:37:38.419Z,97627.00
2022-11-01T01:40:10.741Z,97630.81
2022-11-01T01:42:44.343Z,97630.13
2022-11-01T01:45:31.091Z,97630.47
2022-11-01T01:48:09.565Z,97629.13
2022-11-01T01:50:45.040Z,97637.41
2022-11-01T01:53:20.003Z,97632.25
2022-11-01T01:55:56.726Z,97637.06
2022-11-01T01:58:32.032Z,97634.72
2022-11-01T02:01:05.004Z,97636.88
2022-11-01T02:03:37.027Z,97633.69
2022-11-01T02:06:13.680Z,97636.53
2022-11-01T02:08:48.998Z,97638.50
2022-11-01T02:11:20.674Z,97643.16
2022-11-01T02:13:51.818Z,97644.81
2022-11-01T02:16:50.177Z,97642.44
2022-11-01T02:19:59.007Z,97646.09
2022-11-01T02:22:40.083Z,97639.09
2022-11-01T02:25:44.790Z,97645.09
2022-11-01T02:28:42.174Z,97648.75
2022-11-01T02:31:29.825Z,97650.41
2022-11-01T02:34:07.969Z,97648.75
2022-11-01T02:36:45.986Z,97650.41
2022-11-01T02:39:23.207Z,97659.38
2022-11-01T02:42:01.623Z,97656.72
2022-11-01T02:44:37.796Z,97649.06
2022-11-01T02:47:07.034Z,97663.03
2022-11-01T02:49:43.230Z,97666.72
2022-11-01T02:52:17.075Z,97660.53
2022-11-01T02:54:49.425Z,97657.72
2022-11-01T02:57:32.776Z,97656.22
2022-11-01T03:00:08.793Z,97657.38
2022-11-01T03:02:44.464Z,97657.84
2022-11-01T03:05:26.232Z,97656.47
2022-11-01T03:08:01.494Z,97659.28
2022-11-01T03:10:37.368Z,97665.75
2022-11-01T03:13:18.563Z,97661.59
2022-11-01T03:16:03.406Z,97662.72
2022-11-01T03:18:38.565Z,97669.19
2022-11-01T03:21:18.529Z,97668.69
2022-11-01T03:23:54.198Z,97668.00
2022-11-01T03:26:30.514Z,97668.47
2022-11-01T03:29:04.279Z,97673.25
2022-11-01T03:31:37.862Z,97671.88
2022-11-01T03:34:10.161Z,97677.69
2022-11-01T03:36:48.766Z,97680.50
2022-11-01T03:39:23.678Z,97678.13
2022-11-01T03:41:58.812Z,97673.66
2022-11-01T03:44:33.775Z,97679.13
2022-11-01T03:47:04.410Z,97678.47
2022-11-01T03:49:34.827Z,97684.59
2022-11-01T03:52:08.365Z,97688.38
2022-11-01T03:54:38.821Z,97692.19
2022-11-01T03:57:09.587Z,97694.19
2022-11-01T03:59:40.290Z,97692.81
2022-11-01T04:05:01.108Z,97680.75
2022-11-01T04:07:35.770Z,97683.09
2022-11-01T04:10:06.422Z,97685.06
2022-11-01T04:12:36.982Z,97681.75
2022-11-01T04:15:20.750Z,97682.88
2022-11-01T04:18:05.903Z,97687.06
2022-11-01T04:20:36.926Z,97687.88
2022-11-01T04:23:10.929Z,97682.72
2022-11-01T04:25:41.527Z,97689.00
2022-11-01T04:28:12.015Z,97684.84
2022-11-01T04:30:42.458Z,97680.66
2022-11-01T04:33:13.053Z,97688.78
2022-11-01T04:35:43.818Z,97693.28
2022-11-01T04:38:17.763Z,97688.78
2022-11-01T04:40:48.284Z,97687.97
2022-11-01T04:43:19.253Z,97691.63
2022-11-01T04:45:57.162Z,97691.06
2022-11-01T04:48:28.093Z,97693.88
2022-11-01T04:50:58.585Z,97696.69
2022-11-01T04:53:32.149Z,97696.84
2022-11-01T04:56:04.371Z,97692.50
2022-11-01T04:58:41.442Z,97696.97
2022-11-01T05:01:15.655Z,97695.16
2022-11-01T05:03:46.698Z,97700.47
2022-11-01T05:06:17.169Z,97696.84
2022-11-01T05:08:50.419Z,97702.81
2022-11-01T05:11:25.756Z,97700.88
2022-11-01T05:13:56.592Z,97699.72
2022-11-01T05:16:27.039Z,97711.03
2022-11-01T05:18:57.746Z,97710.03
2022-11-01T05:21:28.231Z,97709.06
2022-11-01T05:24:01.430Z,97718.69
2022-11-01T05:26:31.923Z,97714.19
2022-11-01T05:29:08.828Z,97715.91
2022-11-01T05:31:40.222Z,97722.56
2022-11-01T05:34:10.861Z,97711.63
2022-11-01T05:36:41.341Z,97714.66
2022-11-01T05:39:14.582Z,97714.06
2022-11-01T05:41:45.062Z,97717.78
2022-11-01T05:44:15.587Z,97712.84
2022-11-01T05:46:46.115Z,97720.56
2022-11-01T05:49:16.699Z,97720.50
2022-11-01T05:51:47.153Z,97722.91
2022-11-01T05:54:20.429Z,97727.13
2022-11-01T05:56:50.874Z,97727.56
2022-11-01T05:59:21.521Z,97727.84
2022-11-01T06:01:52.057Z,97730.75
2022-11-01T06:04:25.093Z,97729.16
2022-11-01T06:06:55.481Z,97732.91
2022-11-01T06:09:28.731Z,97737.28
2022-11-01T06:11:59.191Z,97731.03
2022-11-01T06:14:29.775Z,97732.72
2022-11-01T06:17:00.395Z,97737.59
2022-11-01T06:19:30.982Z,97745.94
2022-11-01T06:22:01.644Z,97737.59
2022-11-01T06:24:34.853Z,97746.81
2022-11-01T06:27:09.846Z,97733.72
2022-11-01T06:29:42.169Z,97736.69
2022-11-01T06:32:12.667Z,97742.13
2022-11-01T06:34:44.975Z,97742.19
2022-11-01T06:37:15.584Z,97737.72
2022-11-01T06:39:48.793Z,97734.84
2022-11-01T06:42:19.312Z,97728.69
2022-11-01T06:44:49.891Z,97735.44
2022-11-01T06:47:20.493Z,97735.00
2022-11-01T06:49:51.108Z,97730.88
2022-11-01T06:52:21.562Z,97737.69
2022-11-01T06:54:54.868Z,97740.13
2022-11-01T06:57:25.358Z,97735.31
2022-11-01T06:59:55.872Z,97741.19
2022-11-01T07:02:29.730Z,97739.59
2022-11-01T07:05:00.757Z,97733.03
2022-11-01T07:07:31.533Z,97728.69
2022-11-01T07:10:04.757Z,97726.94
2022-11-01T07:12:35.204Z,97732.00
2022-11-01T07:15:06.034Z,97729.50
2022-11-01T07:17:36.745Z,97726.19
2022-11-01T07:20:08.192Z,97723.66
2022-11-01T07:22:38.641Z,97723.22
2022-11-01T07:25:12.351Z,97724.22
2022-11-01T07:27:43.038Z,97722.31
2022-11-01T07:30:14.799Z,97721.47
2022-11-01T07:32:45.247Z,97710.66
2022-11-01T07:35:15.872Z,97721.44
2022-11-01T07:37:46.333Z,97719.75
2022-11-01T07:40:19.629Z,97715.38
2022-11-01T07:42:50.191Z,97722.38
2022-11-01T07:45:20.973Z,97722.13
2022-11-01T07:47:51.487Z,97715.88
2022-11-01T07:50:22.318Z,97719.78
2022-11-01T07:53:02.414Z,97723.09
2022-11-01T07:55:35.574Z,97722.06
2022-11-01T07:58:06.918Z,97718.72
2022-11-01T08:00:38.500Z,97719.16
2022-11-01T08:03:12.456Z,97716.22
2022-11-01T08:05:43.621Z,97713.75
2022-11-01T08:08:14.661Z,97713.28
2022-11-01T08:10:48.486Z,97710.59
2022-11-01T08:13:21.406Z,97705.81
2022-11-01T08:15:53.664Z,97699.38
2022-11-01T08:18:25.591Z,97700.38
2022-11-01T08:20:56.192Z,97699.94
2022-11-01T08:23:26.699Z,97703.91
2022-11-01T08:26:00.487Z,97699.09
2022-11-01T08:28:30.981Z,97700.72
2022-11-01T08:31:01.757Z,97698.88
2022-11-01T08:33:32.258Z,97702.56
2022-11-01T08:36:02.991Z,97697.34
2022-11-01T08:38:33.504Z,97699.78
2022-11-01T08:41:06.825Z,97701.16
2022-11-01T08:43:40.503Z,97692.50
2022-11-01T08:46:11.947Z,97687.28
2022-11-01T08:48:42.426Z,97696.09
2022-11-01T08:51:12.960Z,97692.47
2022-11-01T08:53:43.896Z,97691.59
2022-11-01T08:56:17.072Z,97690.69
2022-11-01T08:58:47.567Z,97688.75
2022-11-01T09:01:18.339Z,97689.97
2022-11-01T09:03:48.942Z,97686.78
2022-11-01T09:06:19.768Z,97693.19
2022-11-01T09:08:50.455Z,97682.78
2022-11-01T09:11:24.834Z,97688.91
2022-11-01T09:13:58.020Z,97678.25
2022-11-01T09:16:28.651Z,97685.47
2022-11-01T09:19:02.014Z,97686.66
2022-11-01T09:21:32.873Z,97679.75
2022-11-01T09:24:04.161Z,97680.31
2022-11-01T09:26:37.305Z,97676.47
2022-11-01T09:29:08.037Z,97675.81
2022-11-01T09:31:38.627Z,97675.31
2022-11-01T09:34:09.110Z,97679.22
2022-11-01T09:36:39.641Z,97672.28
2022-11-01T09:39:10.067Z,97667.00
2022-11-01T09:41:48.076Z,97663.63
2022-11-01T09:44:22.253Z,97654.81
2022-11-01T09:46:59.549Z,97664.72
2022-11-01T09:49:37.277Z,97651.31
2022-11-01T09:52:08.535Z,97653.09
2022-11-01T09:54:40.383Z,97660.31
2022-11-01T09:57:22.619Z,97655.00
2022-11-01T10:00:04.667Z,97648.06
2022-11-01T10:03:03.312Z,97647.63
2022-11-01T10:05:51.619Z,97643.38
2022-11-01T10:08:37.487Z,97650.22
2022-11-01T10:11:20.047Z,97642.44
2022-11-01T10:14:01.649Z,97644.19
2022-11-01T10:16:38.877Z,97639.94
2022-11-01T10:19:15.485Z,97636.88
2022-11-01T10:21:50.239Z,97634.53
2022-11-01T10:24:30.896Z,97634.41
2022-11-01T10:27:08.442Z,97632.63
2022-11-01T10:29:50.596Z,97632.03
2022-11-01T10:32:31.247Z,97633.56
2022-11-01T10:35:07.354Z,97625.31
2022-11-01T10:37:52.361Z,97633.66
2022-11-01T10:40:41.229Z,97621.72
2022-11-01T10:43:16.290Z,97627.13
2022-11-01T10:45:53.071Z,97636.38
2022-11-01T10:48:32.842Z,97630.06
2022-11-01T10:51:06.598Z,97619.41
2022-11-01T10:53:41.385Z,97621.00
2022-11-01T10:56:24.045Z,97613.84
2022-11-01T10:59:01.691Z,97616.25
2022-11-01T11:01:43.202Z,97608.53
2022-11-01T11:04:18.133Z,97611.94
2022-11-01T11:06:49.357Z,97602.56
2022-11-01T11:09:27.583Z,97602.47
2022-11-01T11:12:03.121Z,97608.88
2022-11-01T11:14:36.396Z,97594.38
2022-11-01T11:17:18.247Z,97601.59
2022-11-01T11:19:49.947Z,97590.59
2022-11-01T11:22:20.901Z,97591.78
2022-11-01T11:24:53.076Z,97591.41
2022-11-01T11:27:26.197Z,97583.59
2022-11-01T11:29:58.984Z,97581.56
2022-11-01T11:32:35.671Z,97585.81
2022-11-01T11:35:13.468Z,97571.19
2022-11-01T11:37:55.855Z,97572.13
2022-11-01T11:40:27.386Z,97574.13
2022-11-01T11:42:59.653Z,97576.09
2022-11-01T11:45:31.798Z,97572.34
2022-11-01T11:48:19.327Z,97571.63
2022-11-01T11:50:50.021Z,97570.09
2022-11-01T11:53:23.645Z,97564.97
2022-11-01T11:55:58.379Z,97566.38
2022-11-01T11:58:33.103Z,97572.16
2022-11-01T12:01:07.194Z,97563.16
2022-11-01T12:03:50.555Z,97564.03
2022-11-01T12:06:24.184Z,97564.88
2022-11-01T12:08:56.796Z,97562.16
2022-11-01T12:11:29.048Z,97557.81
2022-11-01T12:14:23.203Z,97549.38
2022-11-01T12:16:54.132Z,97563.31
2022-11-01T12:19:29.536Z,97548.56
2022-11-01T12:22:03.417Z,97553.78
2022-11-01T12:24:40.182Z,97555.38
2022-11-01T12:27:19.149Z,97555.94
2022-11-01T12:29:54.417Z,97548.75
2022-11-01T12:32:30.802Z,97548.09
2022-11-01T12:35:07.809Z,97550.44
2022-11-01T12:37:50.264Z,97548.94
2022-11-01T12:40:25.180Z,97550.72
2022-11-01T12:43:01.437Z,97544.88
2022-11-01T12:45:37.530Z,97546.16
2022-11-01T12:48:14.464Z,97543.84
2022-11-01T12:50:53.349Z,97540.97
2022-11-01T12:53:27.718Z,97553.41
2022-11-01T12:56:00.902Z,97546.78
2022-11-01T12:58:35.220Z,97538.50
2022-11-01T13:01:27.496Z,97540.84
2022-11-01T13:04:10.310Z,97537.75
2022-11-01T13:07:06.474Z,97544.22
2022-11-01T13:09:48.741Z,97540.03
2022-11-01T13:12:26.449Z,97530.41
2022-11-01T13:15:06.641Z,97539.31
2022-11-01T13:17:43.496Z,97537.34
2022-11-01T13:20:41.332Z,97534.56
2022-11-01T13:23:22.186Z,97532.03
2022-11-01T13:26:01.934Z,97538.78
2022-11-01T13:28:49.179Z,97537.06
2022-11-01T13:31:33.741Z,97542.19
2022-11-01T13:34:16.867Z,97536.44
2022-11-01T13:36:56.883Z,97530.94
2022-11-01T13:39:40.747Z,97534.13
2022-11-01T13:42:16.374Z,97533.00
2022-11-01T13:44:50.865Z,97537.28
2022-11-01T13:50:54.716Z,97526.03
2022-11-01T13:53:34.294Z,97532.19
2022-11-01T13:56:14.433Z,97529.16
2022-11-01T13:58:44.980Z,97529.88
2022-11-01T14:01:37.913Z,97524.38
2022-11-01T14:04:49.885Z,97527.00
2022-11-01T14:07:24.325Z,97531.50
2022-11-01T14:09:56.060Z,97529.53
2022-11-01T14:12:43.349Z,97522.13
2022-11-01T14:15:39.375Z,97525.84
2022-11-01T14:18:14.704Z,97526.56
2022-11-01T14:20:53.711Z,97525.63
2022-11-01T14:23:52.500Z,97525.00
2022-11-01T14:27:05.195Z,97526.69
2022-11-01T14:29:36.785Z,97524.13
2022-11-01T14:32:08.984Z,97519.94
2022-11-01T14:34:39.789Z,97512.19
2022-11-01T14:37:23.319Z,97529.41
2022-11-01T14:40:04.841Z,97528.13
2022-11-01T14:42:45.671Z,97526.38
2022-11-01T14:45:35.216Z,97522.41
2022-11-01T14:48:13.311Z,97519.22
2022-11-01T14:50:55.316Z,97526.94
2022-11-01T14:53:31.472Z,97533.78
2022-11-01T14:56:22.080Z,97527.66
2022-11-01T14:58:52.526Z,97518.25
2022-11-01T15:01:25.301Z,97528.41
2022-11-01T15:04:00.213Z,97522.28
2022-11-01T15:06:32.649Z,97527.81
2022-11-01T15:09:05.570Z,97526.25
2022-11-01T15:11:39.313Z,97524.72
2022-11-01T15:14:11.699Z,97524.00
2022-11-01T15:16:45.645Z,97524.34
2022-11-01T15:19:19.364Z,97523.88
2022-11-01T15:21:51.174Z,97525.88
2022-11-01T15:24:24.820Z,97530.81
2022-11-01T15:26:58.612Z,97531.34
2022-11-01T15:29:29.754Z,97532.75
2022-11-01T15:32:03.007Z,97539.53
2022-11-01T15:34:35.285Z,97535.13
2022-11-01T15:37:18.790Z,97537.31
2022-11-01T15:39:49.610Z,97535.97
2022-11-01T15:42:27.726Z,97541.09
2022-11-01T15:44:58.179Z,97553.03
2022-11-01T15:47:31.061Z,97547.13
2022-11-01T15:50:05.811Z,97551.19
2022-11-01T15:52:38.974Z,97546.91
2022-11-01T15:55:15.705Z,97553.63
2022-11-01T15:57:52.771Z,97565.19
2022-11-01T16:00:33.013Z,97559.50
2022-11-01T16:03:07.796Z,97567.00
2022-11-01T16:05:44.986Z,97566.69
2022-11-01T16:08:22.449Z,97566.13
2022-11-01T16:10:53.088Z,97571.81
2022-11-01T16:13:26.498Z,97569.41
2022-11-01T16:16:08.644Z,97567.38
2022-11-01T16:18:40.504Z,97574.47
2022-11-01T16:21:32.026Z,97579.09
2022-11-01T16:24:09.462Z,97590.75
2022-11-01T16:26:55.628Z,97585.00
2022-11-01T16:29:45.018Z,97588.59
2022-11-01T16:32:22.057Z,97594.22
2022-11-01T16:34:53.006Z,97599.44
2022-11-01T16:37:24.175Z,97600.25
2022-11-01T16:39:55.041Z,97600.47
2022-11-01T16:42:26.370Z,97601.34
2022-11-01T16:45:00.210Z,97607.19
2022-11-01T16:47:31.344Z,97596.44
2022-11-01T16:50:01.911Z,97600.81
2022-11-01T16:52:34.097Z,97605.19
2022-11-01T16:55:04.633Z,97605.19
2022-11-01T16:57:35.085Z,97604.38
2022-11-01T17:00:15.103Z,97605.03
2022-11-01T17:02:45.626Z,97609.38
2022-11-01T17:05:23.746Z,97605.44
2022-11-01T17:07:55.561Z,97607.53
2022-11-01T17:10:31.220Z,97607.31
2022-11-01T17:13:04.254Z,97611.88
2022-11-01T17:15:42.747Z,97613.53
2022-11-01T17:18:17.794Z,97613.72
2022-11-01T17:20:52.328Z,97610.22
2022-11-01T17:23:26.577Z,97618.06
2022-11-01T17:25:58.170Z,97618.03
2022-11-01T17:28:28.887Z,97614.53
2022-11-01T17:31:02.283Z,97610.81
2022-11-01T17:33:32.838Z,97611.81
2022-11-01T17:36:04.098Z,97616.34
2022-11-01T17:38:37.186Z,97610.34
2022-11-01T17:41:09.717Z,97615.72
2022-11-01T17:43:40.376Z,97614.25
2022-11-01T17:46:17.995Z,97617.09
2022-11-01T17:48:48.963Z,97611.91
2022-11-01T17:51:19.816Z,97608.34
2022-11-01T17:53:50.481Z,97614.53
2022-11-01T17:56:21.035Z,97621.97
2022-11-01T17:58:53.908Z,97615.69
2022-11-01T18:01:27.295Z,97610.28
2022-11-01T18:03:57.943Z,97607.56
2022-11-01T18:06:28.687Z,97610.00
2022-11-01T18:08:59.210Z,97606.06
2022-11-01T18:11:42.619Z,97599.44
2022-11-01T18:14:18.004Z,97604.75
2022-11-01T18:16:56.650Z,97594.81
2022-11-01T18:19:44.225Z,97591.06
2022-11-01T18:22:23.837Z,97587.31
2022-11-01T18:25:00.425Z,97589.75
2022-11-01T18:27:37.826Z,97585.16
2022-11-01T18:30:17.785Z,97586.59
2022-11-01T18:32:57.777Z,97583.44
2022-11-01T18:35:35.471Z,97582.09
2022-11-01T18:38:23.421Z,97588.66
2022-11-01T18:41:00.730Z,97584.78
2022-11-01T18:43:34.411Z,97584.16
2022-11-01T18:46:25.798Z,97584.22
2022-11-01T18:49:03.881Z,97585.81
2022-11-01T18:51:38.562Z,97587.81
2022-11-01T18:54:30.506Z,97588.50
2022-11-01T18:57:02.918Z,97585.13
2022-11-01T18:59:36.763Z,97588.59
2022-11-01T19:02:17.423Z,97591.09
2022-11-01T19:04:53.456Z,97580.09
2022-11-01T19:07:27.189Z,97585.41
2022-11-01T19:10:04.254Z,97587.41
2022-11-01T19:12:39.611Z,97587.91
2022-11-01T19:15:23.411Z,97584.13
2022-11-01T19:18:00.719Z,97597.31
2022-11-01T19:20:37.926Z,97586.50
2022-11-01T19:23:17.337Z,97581.81
2022-11-01T19:25:48.317Z,97595.06
2022-11-01T19:28:28.581Z,97595.22
2022-11-01T19:31:01.707Z,97590.28
2022-11-01T19:33:37.468Z,97592.69
2022-11-01T19:36:24.976Z,97599.63
2022-11-01T19:38:56.334Z,97599.06
2022-11-01T19:41:33.470Z,97598.47
2022-11-01T19:44:14.369Z,97599.03
2022-11-01T19:46:44.913Z,97595.50
2022-11-01T19:49:26.583Z,97595.63
2022-11-01T19:52:15.156Z,97592.03
2022-11-01T19:54:55.375Z,97597.84
2022-11-01T19:57:33.490Z,97595.84
2022-11-01T20:00:19.214Z,97596.66
2022-11-01T20:02:50.947Z,97591.31
2022-11-01T20:05:29.489Z,97600.34
2022-11-01T20:08:18.543Z,97597.03
2022-11-01T20:10:49.135Z,97597.41
2022-11-01T20:13:19.950Z,97592.22
2022-11-01T20:15:50.427Z,97597.56
2022-11-01T20:18:21.068Z,97602.28
2022-11-01T20:20:53.099Z,97594.44
2022-11-01T20:23:27.252Z,97598.13
2022-11-01T20:25:58.494Z,97600.97
2022-11-01T20:28:29.176Z,97600.31
2022-11-01T20:30:59.669Z,97601.66
2022-11-01T20:33:30.315Z,97604.50
2022-11-01T20:36:01.188Z,97594.53
2022-11-01T20:38:34.532Z,97610.94
2022-11-01T20:41:05.012Z,97602.44
2022-11-01T20:43:35.622Z,97603.63
2022-11-01T20:46:06.068Z,97600.50
2022-11-01T20:48:36.679Z,97600.84
2022-11-01T20:51:07.457Z,97595.84
2022-11-01T20:53:40.883Z,97598.03
2022-11-01T20:56:12.379Z,97592.41
2022-11-01T20:58:42.987Z,97601.59
2022-11-01T21:01:17.492Z,97597.63
2022-11-01T21:03:48.162Z,97603.47
2022-11-01T21:06:20.598Z,97591.47
2022-11-01T21:08:53.762Z,97595.50
2022-11-01T21:11:44.268Z,97590.53
2022-11-01T21:14:18.632Z,97589.84
2022-11-01T21:16:50.162Z,97584.69
2022-11-01T21:19:24.305Z,97587.56
2022-11-01T21:21:56.782Z,97588.53
2022-11-01T21:24:34.404Z,97584.38
2022-11-01T21:27:23.120Z,97583.06
2022-11-01T21:29:54.985Z,97582.75
2022-11-01T21:32:30.182Z,97583.28
2022-11-01T21:35:01.293Z,97583.63
2022-11-01T21:37:33.349Z,97573.28
2022-11-01T21:40:24.127Z,97579.00
2022-11-01T21:42:54.604Z,97576.50
2022-11-01T21:45:32.765Z,97569.84
2022-11-01T21:48:05.875Z,97571.19
2022-11-01T21:50:36.560Z,97570.56
2022-11-01T21:53:07.148Z,97572.84
2022-11-01T21:55:40.333Z,97570.72
2022-11-01T21:58:10.900Z,97565.06
2022-11-01T22:00:41.412Z,97564.38
2022-11-01T22:03:11.886Z,97563.06
2022-11-01T22:05:42.436Z,97556.06
2022-11-01T22:08:13.010Z,97561.41
2022-11-01T22:10:46.134Z,97565.09
2022-11-01T22:13:16.599Z,97552.75
2022-11-01T22:15:47.188Z,97548.22
2022-11-01T22:18:22.411Z,97556.25
2022-11-01T22:20:55.367Z,97556.41
2022-11-01T22:23:25.792Z,97561.25
2022-11-01T22:25:58.971Z,97557.09
2022-11-01T22:28:29.410Z,97551.44
2022-11-01T22:31:00.033Z,97547.47
2022-11-01T22:33:30.495Z,97549.81
2022-11-01T22:36:01.105Z,97537.81
2022-11-01T22:38:37.742Z,97541.81
2022-11-01T22:41:14.979Z,97538.84
2022-11-01T22:43:49.073Z,97534.16
2022-11-01T22:46:23.312Z,97533.19
2022-11-01T22:48:55.835Z,97530.22
2022-11-01T22:51:32.827Z,97535.19
2022-11-01T22:54:03.389Z,97530.38
2022-11-01T22:56:36.649Z,97526.56
2022-11-01T22:59:07.368Z,97522.56
2022-11-01T23:01:38.139Z,97523.88
2022-11-01T23:04:22.077Z,97517.91
2022-11-01T23:06:52.654Z,97516.25
2022-11-01T23:09:23.926Z,97517.41
2022-11-01T23:12:11.354Z,97513.41
2022-11-01T23:14:45.715Z,97517.25
2022-11-01T23:17:25.141Z,97518.22
2022-11-01T23:19:59.151Z,97521.25
2022-11-01T23:22:34.376Z,97513.56
2022-11-01T23:25:06.559Z,97519.91
2022-11-01T23:27:39.996Z,97522.91
2022-11-01T23:30:11.757Z,97515.91
2022-11-01T23:32:42.793Z,97514.25
2022-11-01T23:35:17.159Z,97516.22
2022-11-01T23:37:48.104Z,97512.06
2022-11-01T23:40:21.344Z,97509.56
2022-11-01T23:42:54.616Z,97517.88
2022-11-01T23:45:31.792Z,97519.88
2022-11-01T23:48:04.099Z,97522.06
2022-11-01T23:50:37.185Z,97518.72
2022-11-01T23:53:12.002Z,97518.22
2022-11-01T23:55:45.892Z,97519.22
2022-11-01T23:58:22.532Z,97517.53
